createdAt,value
2023-10-15T00:00:28.705Z,15.57
2023-10-15T00:02:55.698Z,16.46
2023-10-15T00:05:27.257Z,16.37
2023-10-15T00:07:55.422Z,16.90
2023-10-15T00:10:24.726Z,16.40
2023-10-15T00:12:54.262Z,15.87
2023-10-15T00:15:24.484Z,15.56
2023-10-15T00:17:53.750Z,15.62
2023-10-15T00:20:22.686Z,15.34
2023-10-15T00:22:51.569Z,15.58
2023-10-15T00:25:21.135Z,15.62
2023-10-15T00:27:54.574Z,15.33
2023-10-15T00:30:22.373Z,16.04
2023-10-15T00:32:50.592Z,15.60
2023-10-15T00:35:23.902Z,15.98
2023-10-15T00:37:56.546Z,15.25
2023-10-15T00:40:29.335Z,15.73
2023-10-15T00:42:59.112Z,15.54
2023-10-15T00:45:25.967Z,16.32
2023-10-15T00:48:15.350Z,16.17
2023-10-15T00:50:43.014Z,15.80
2023-10-15T00:53:22.955Z,15.63
2023-10-15T00:56:05.222Z,16.04
2023-10-15T00:58:35.306Z,15.22
2023-10-15T01:03:39.449Z,15.18
2023-10-15T01:06:07.011Z,15.33
2023-10-15T01:08:39.158Z,15.29
2023-10-15T01:11:12.684Z,16.09
2023-10-15T01:13:40.088Z,15.61
2023-10-15T01:16:09.909Z,15.34
2023-10-15T01:18:38.058Z,15.43
2023-10-15T01:21:10.760Z,15.87
2023-10-15T01:23:44.228Z,16.49
2023-10-15T01:26:16.368Z,15.46
2023-10-15T01:28:44.822Z,15.66
2023-10-15T01:31:16.531Z,15.25
2023-10-15T01:33:51.483Z,15.17
2023-10-15T01:36:28.867Z,15.38
2023-10-15T01:39:03.769Z,15.34
2023-10-15T01:41:30.523Z,15.54
2023-10-15T01:44:02.544Z,15.08
2023-10-15T01:47:02.061Z,15.45
2023-10-15T01:49:35.358Z,15.31
2023-10-15T01:52:10.396Z,15.63
2023-10-15T01:54:38.371Z,15.79
2023-10-15T01:57:08.672Z,15.42
2023-10-15T01:59:48.590Z,14.93
2023-10-15T02:02:19.075Z,14.67
2023-10-15T02:04:46.819Z,14.97
2023-10-15T02:07:18.051Z,14.91
2023-10-15T02:09:45.655Z,14.55
2023-10-15T02:12:19.103Z,14.34
2023-10-15T02:14:49.050Z,14.37
2023-10-15T02:17:20.063Z,14.38
2023-10-15T02:19:48.794Z,14.38
2023-10-15T02:22:15.678Z,14.19
2023-10-15T02:24:49.935Z,14.11
2023-10-15T02:27:26.755Z,14.76
2023-10-15T02:29:54.106Z,14.62
2023-10-15T02:32:22.895Z,14.42
2023-10-15T02:34:53.073Z,14.07
2023-10-15T02:37:32.412Z,14.66
2023-10-15T02:40:00.430Z,14.23
2023-10-15T02:42:36.980Z,14.04
2023-10-15T02:45:08.154Z,14.31
2023-10-15T02:47:49.969Z,14.90
2023-10-15T02:50:19.542Z,14.44
2023-10-15T02:52:49.895Z,15.20
2023-10-15T02:55:18.398Z,14.43
2023-10-15T02:57:45.726Z,14.60
2023-10-15T03:00:29.817Z,14.18
2023-10-15T03:02:57.456Z,14.56
2023-10-15T03:05:31.893Z,14.35
2023-10-15T03:08:00.987Z,14.33
2023-10-15T03:10:48.063Z,15.07
2023-10-15T03:13:19.801Z,14.87
2023-10-15T03:15:50.606Z,14.66
2023-10-15T03:18:30.227Z,14.66
2023-10-15T03:21:16.164Z,15.02
2023-10-15T03:23:43.848Z,14.55
2023-10-15T03:26:18.930Z,14.13
2023-10-15T03:28:47.887Z,13.80
2023-10-15T03:31:17.582Z,13.97
2023-10-15T03:34:04.976Z,13.68
2023-10-15T03:36:43.980Z,13.65
2023-10-15T03:39:16.974Z,13.37
2023-10-15T03:41:54.202Z,14.08
2023-10-15T03:44:34.330Z,13.77
2023-10-15T03:47:07.171Z,13.85
2023-10-15T03:49:34.282Z,13.42
2023-10-15T03:52:08.355Z,13.23
2023-10-15T03:54:39.378Z,13.10
2023-10-15T03:57:08.127Z,12.93
2023-10-15T03:59:54.070Z,13.00
2023-10-15T04:02:32.832Z,13.37
2023-10-15T04:05:05.072Z,13.57
2023-10-15T04:07:32.504Z,12.96
2023-10-15T04:09:59.867Z,13.05
2023-10-15T04:12:29.267Z,13.17
2023-10-15T04:15:00.041Z,13.01
2023-10-15T04:17:26.900Z,14.07
2023-10-15T04:19:53.912Z,13.76
2023-10-15T04:22:20.833Z,13.96
2023-10-15T04:24:51.713Z,13.41
2023-10-15T04:27:19.531Z,12.99
2023-10-15T04:29:53.713Z,13.36
2023-10-15T04:32:30.589Z,13.68
2023-10-15T04:35:02.886Z,13.67
2023-10-15T04:37:31.164Z,13.46
2023-10-15T04:40:17.269Z,13.80
2023-10-15T04:42:52.357Z,12.70
2023-10-15T04:45:36.326Z,13.36
2023-10-15T04:48:14.523Z,13.18
2023-10-15T04:50:44.999Z,14.01
2023-10-15T04:53:21.051Z,13.23
2023-10-15T04:55:50.028Z,12.61
2023-10-15T04:58:17.073Z,12.71
2023-10-15T05:00:51.376Z,12.76
2023-10-15T05:03:18.863Z,12.61
2023-10-15T05:05:46.172Z,12.46
2023-10-15T05:08:13.862Z,12.92
2023-10-15T05:10:52.512Z,12.45
2023-10-15T05:13:20.535Z,12.84
2023-10-15T05:15:50.836Z,12.45
2023-10-15T05:18:20.477Z,12.69
2023-10-15T05:20:51.777Z,12.70
2023-10-15T05:23:20.297Z,12.56
2023-10-15T05:25:51.161Z,13.00
2023-10-15T05:28:18.861Z,13.00
2023-10-15T05:30:46.085Z,13.42
2023-10-15T05:33:13.208Z,12.79
2023-10-15T05:35:44.303Z,13.88
2023-10-15T05:38:11.292Z,13.88
2023-10-15T05:40:38.818Z,14.11
2023-10-15T05:43:08.864Z,14.51
2023-10-15T05:45:35.706Z,13.94
2023-10-15T05:48:03.142Z,14.21
2023-10-15T05:50:31.024Z,15.07
2023-10-15T05:52:57.922Z,15.85
2023-10-15T05:55:24.755Z,14.51
2023-10-15T05:57:51.989Z,15.18
2023-10-15T06:00:19.463Z,14.67
2023-10-15T06:02:51.831Z,14.81
2023-10-15T06:05:18.990Z,14.57
2023-10-15T06:07:50.343Z,15.41
2023-10-15T06:10:18.280Z,15.06
2023-10-15T06:12:45.366Z,15.85
2023-10-15T06:15:19.301Z,15.97
2023-10-15T06:17:48.683Z,16.07
2023-10-15T06:20:15.773Z,16.06
2023-10-15T06:22:47.774Z,15.16
2023-10-15T06:25:18.151Z,16.14
2023-10-15T06:27:46.277Z,17.49
2023-10-15T06:30:20.106Z,17.57
2023-10-15T06:32:49.532Z,17.19
2023-10-15T06:35:22.149Z,16.50
2023-10-15T06:37:50.729Z,17.24
2023-10-15T06:40:23.002Z,17.99
2023-10-15T06:42:53.654Z,18.44
2023-10-15T06:45:21.730Z,18.06
2023-10-15T06:47:53.920Z,17.54
2023-10-15T06:50:25.947Z,18.27
2023-10-15T06:52:54.787Z,18.69
2023-10-15T06:55:22.302Z,19.14
2023-10-15T06:57:50.184Z,18.32
2023-10-15T07:00:24.318Z,18.73
2023-10-15T07:02:53.032Z,18.92
2023-10-15T07:05:21.722Z,18.76
2023-10-15T07:07:49.328Z,18.66
2023-10-15T07:10:17.843Z,18.44
2023-10-15T07:12:55.752Z,19.24
2023-10-15T07:15:22.851Z,18.09
2023-10-15T07:17:53.017Z,18.28
2023-10-15T07:20:22.475Z,19.27
2023-10-15T07:22:51.622Z,19.94
2023-10-15T07:25:20.445Z,19.28
2023-10-15T07:27:50.161Z,20.07
2023-10-15T07:30:21.428Z,19.23
2023-10-15T07:32:49.332Z,19.64
2023-10-15T07:35:17.243Z,19.29
2023-10-15T07:37:51.393Z,20.18
2023-10-15T07:40:23.510Z,19.76
2023-10-15T07:42:52.692Z,20.42
2023-10-15T07:45:21.495Z,20.44
2023-10-15T07:47:48.902Z,20.20
2023-10-15T07:50:24.959Z,20.96
2023-10-15T07:52:53.137Z,21.66
2023-10-15T07:55:20.726Z,21.41
2023-10-15T07:57:48.037Z,21.34
2023-10-15T08:00:16.742Z,21.43
2023-10-15T08:02:47.592Z,21.37
2023-10-15T08:05:15.166Z,21.03
2023-10-15T08:07:43.228Z,21.49
2023-10-15T08:10:11.152Z,20.84
2023-10-15T08:12:39.027Z,21.69
2023-10-15T08:15:08.087Z,21.90
2023-10-15T08:17:35.409Z,21.42
2023-10-15T08:20:04.497Z,21.35
2023-10-15T08:22:31.533Z,21.53
2023-10-15T08:24:58.392Z,21.90
2023-10-15T08:27:25.295Z,21.89
2023-10-15T08:29:52.957Z,22.29
2023-10-15T08:32:23.913Z,20.86
2023-10-15T08:34:50.829Z,21.37
2023-10-15T08:37:17.844Z,22.06
2023-10-15T08:39:44.668Z,21.94
2023-10-15T08:42:15.952Z,22.05
2023-10-15T08:44:44.917Z,22.88
2023-10-15T08:47:12.448Z,22.65
2023-10-15T08:49:47.929Z,22.69
2023-10-15T08:52:17.918Z,22.77
2023-10-15T08:54:46.491Z,23.04
2023-10-15T08:57:15.189Z,22.60
2023-10-15T08:59:44.752Z,23.46
2023-10-15T09:02:12.459Z,23.91
2023-10-15T09:04:39.805Z,23.76
2023-10-15T09:07:06.719Z,24.00
2023-10-15T09:09:34.507Z,24.37
2023-10-15T09:12:07.875Z,24.03
2023-10-15T09:14:45.653Z,24.48
2023-10-15T09:17:17.220Z,23.53
2023-10-15T09:19:45.697Z,23.86
2023-10-15T09:22:15.999Z,24.38
2023-10-15T09:24:47.682Z,24.07
2023-10-15T09:27:15.496Z,23.99
2023-10-15T09:29:50.497Z,24.39
2023-10-15T09:32:17.729Z,25.04
2023-10-15T09:34:49.757Z,24.62
2023-10-15T09:37:21.945Z,24.64
2023-10-15T09:39:50.322Z,24.78
2023-10-15T09:42:17.470Z,24.18
2023-10-15T09:44:44.715Z,25.37
2023-10-15T09:47:14.941Z,25.13
2023-10-15T09:49:43.454Z,24.48
2023-10-15T09:52:13.904Z,25.34
2023-10-15T09:54:44.209Z,25.73
2023-10-15T09:57:14.761Z,25.00
2023-10-15T09:59:41.743Z,25.00
2023-10-15T10:02:20.854Z,25.66
2023-10-15T10:05:18.534Z,25.76
2023-10-15T10:08:30.025Z,25.62
2023-10-15T10:11:47.322Z,25.45
2023-10-15T10:14:27.325Z,26.35
2023-10-15T10:16:54.763Z,26.15
2023-10-15T10:19:21.958Z,26.11
2023-10-15T10:21:49.654Z,24.95
2023-10-15T10:24:19.658Z,26.07
2023-10-15T10:26:54.506Z,26.36
2023-10-15T10:29:27.061Z,26.45
2023-10-15T10:31:57.289Z,27.09
2023-10-15T10:34:31.439Z,26.75
2023-10-15T10:36:58.456Z,26.98
2023-10-15T10:39:27.303Z,26.20
2023-10-15T10:42:00.972Z,26.38
2023-10-15T10:44:29.358Z,26.50
2023-10-15T10:46:59.557Z,26.46
2023-10-15T10:49:38.911Z,26.89
2023-10-15T10:52:18.569Z,26.95
2023-10-15T10:54:47.062Z,27.31
2023-10-15T10:57:14.130Z,27.16
2023-10-15T10:59:43.435Z,27.54
2023-10-15T11:02:13.242Z,27.35
2023-10-15T11:04:41.829Z,27.00
2023-10-15T11:07:10.858Z,27.46
2023-10-15T11:09:41.049Z,27.40
2023-10-15T11:12:13.514Z,26.90
2023-10-15T11:14:41.699Z,27.47
2023-10-15T11:17:12.232Z,27.72
2023-10-15T11:19:41.131Z,27.62
2023-10-15T11:22:08.949Z,27.26
2023-10-15T11:24:35.863Z,26.91
2023-10-15T11:27:02.989Z,27.44
2023-10-15T11:29:32.691Z,27.22
2023-10-15T11:32:00.496Z,27.25
2023-10-15T11:34:29.711Z,27.37
2023-10-15T11:36:58.194Z,27.62
2023-10-15T11:39:47.541Z,27.75
2023-10-15T11:42:15.641Z,27.52
2023-10-15T11:44:44.068Z,27.79
2023-10-15T11:47:13.733Z,27.63
2023-10-15T11:49:44.631Z,27.77
2023-10-15T11:52:17.618Z,28.05
2023-10-15T11:54:51.127Z,27.88
2023-10-15T11:57:25.675Z,27.90
2023-10-15T11:59:58.641Z,27.54
2023-10-15T12:02:28.398Z,27.45
2023-10-15T12:04:59.304Z,27.80
2023-10-15T12:07:27.045Z,28.21
2023-10-15T12:09:53.953Z,28.17
2023-10-15T12:12:20.939Z,27.77
2023-10-15T12:14:49.471Z,27.54
2023-10-15T12:17:17.772Z,28.06
2023-10-15T12:19:46.682Z,27.87
2023-10-15T12:22:16.878Z,27.81
2023-10-15T12:24:44.788Z,26.54
2023-10-15T12:27:11.854Z,26.73
2023-10-15T12:29:40.665Z,27.59
2023-10-15T12:32:10.377Z,27.42
2023-10-15T12:34:41.183Z,27.62
2023-10-15T12:37:09.150Z,27.99
2023-10-15T12:39:42.014Z,27.14
2023-10-15T12:42:10.247Z,26.98
2023-10-15T12:44:40.655Z,27.35
2023-10-15T12:47:10.505Z,27.42
2023-10-15T12:49:38.370Z,27.28
2023-10-15T12:52:06.067Z,27.71
2023-10-15T12:54:39.289Z,27.97
2023-10-15T12:57:06.062Z,27.59
2023-10-15T12:59:36.662Z,27.97
2023-10-15T13:02:05.337Z,28.07
2023-10-15T13:04:32.396Z,27.85
2023-10-15T13:06:59.313Z,27.74
2023-10-15T13:09:35.762Z,27.88
2023-10-15T13:12:03.540Z,27.75
2023-10-15T13:14:30.519Z,27.91
2023-10-15T13:16:58.518Z,27.75
2023-10-15T13:19:25.613Z,27.71
2023-10-15T13:21:52.815Z,28.06
2023-10-15T13:24:19.696Z,27.81
2023-10-15T13:26:49.464Z,27.70
2023-10-15T13:29:16.393Z,27.49
2023-10-15T13:31:43.429Z,27.67
2023-10-15T13:34:11.028Z,27.68
2023-10-15T13:36:39.062Z,27.70
2023-10-15T13:39:08.280Z,28.01
2023-10-15T13:41:35.423Z,28.00
2023-10-15T13:44:02.414Z,27.94
2023-10-15T13:46:30.298Z,27.81
2023-10-15T13:48:57.276Z,27.49
2023-10-15T13:51:26.384Z,27.71
2023-10-15T13:53:53.480Z,27.38
2023-10-15T13:56:21.516Z,27.62
2023-10-15T13:58:48.736Z,27.80
2023-10-15T14:01:16.849Z,27.81
2023-10-15T14:03:45.576Z,27.59
2023-10-15T14:06:13.449Z,27.82
2023-10-15T14:08:40.410Z,27.71
2023-10-15T14:11:08.712Z,27.56
2023-10-15T14:13:36.491Z,27.69
2023-10-15T14:16:04.399Z,27.49
2023-10-15T14:18:31.432Z,27.39
2023-10-15T14:20:58.378Z,27.14
2023-10-15T14:23:27.701Z,27.00
2023-10-15T14:25:55.266Z,26.92
2023-10-15T14:28:22.237Z,27.02
2023-10-15T14:30:51.413Z,26.87
2023-10-15T14:33:18.497Z,26.88
2023-10-15T14:35:45.392Z,26.98
2023-10-15T14:38:12.547Z,26.98
2023-10-15T14:40:40.441Z,26.92
2023-10-15T14:43:08.549Z,26.94
2023-10-15T14:45:58.571Z,26.95
2023-10-15T14:48:27.759Z,26.65
2023-10-15T14:50:54.652Z,26.86
2023-10-15T14:53:21.638Z,26.77
2023-10-15T14:55:50.416Z,26.77
2023-10-15T14:58:17.798Z,26.73
2023-10-15T15:00:44.693Z,26.86
2023-10-15T15:03:11.633Z,26.82
2023-10-15T15:05:39.104Z,26.92
2023-10-15T15:08:06.488Z,26.84
2023-10-15T15:10:36.164Z,26.67
2023-10-15T15:13:03.866Z,26.41
2023-10-15T15:15:31.024Z,26.19
2023-10-15T15:17:58.381Z,26.10
2023-10-15T15:20:25.749Z,25.88
2023-10-15T15:22:53.656Z,25.67
2023-10-15T15:25:22.007Z,25.76
2023-10-15T15:27:49.110Z,25.64
2023-10-15T15:30:16.760Z,25.63
2023-10-15T15:32:47.435Z,25.15
2023-10-15T15:35:15.462Z,25.15
2023-10-15T15:37:43.912Z,25.19
2023-10-15T15:40:12.660Z,24.90
2023-10-15T15:42:39.795Z,24.67
2023-10-15T15:45:09.236Z,24.47
2023-10-15T15:47:37.088Z,24.19
2023-10-15T15:50:10.292Z,24.09
2023-10-15T15:52:37.182Z,23.83
2023-10-15T15:55:05.664Z,24.00
2023-10-15T15:57:32.700Z,23.77
2023-10-15T15:59:59.455Z,23.74
2023-10-15T16:02:26.973Z,24.08
2023-10-15T16:04:54.365Z,23.84
2023-10-15T16:07:23.129Z,23.62
2023-10-15T16:09:50.638Z,23.22
2023-10-15T16:12:18.729Z,23.39
2023-10-15T16:14:45.635Z,22.84
2023-10-15T16:17:12.444Z,22.73
2023-10-15T16:19:39.266Z,22.62
2023-10-15T16:22:06.071Z,22.67
2023-10-15T16:24:33.028Z,22.33
2023-10-15T16:27:00.034Z,22.30
2023-10-15T16:29:27.058Z,22.66
2023-10-15T16:31:53.825Z,22.80
2023-10-15T16:34:24.312Z,22.93
2023-10-15T16:36:52.585Z,22.45
2023-10-15T16:39:19.779Z,22.49
2023-10-15T16:41:46.736Z,22.25
2023-10-15T16:44:13.647Z,22.47
2023-10-15T16:46:40.633Z,22.17
2023-10-15T16:49:08.771Z,21.97
2023-10-15T16:51:35.660Z,21.86
2023-10-15T16:54:03.552Z,22.02
2023-10-15T16:56:30.340Z,21.77
2023-10-15T16:58:57.368Z,21.92
2023-10-15T17:01:24.509Z,21.76
2023-10-15T17:03:51.278Z,21.58
2023-10-15T17:06:19.224Z,21.82
2023-10-15T17:08:48.957Z,22.07
2023-10-15T17:11:16.315Z,21.93
2023-10-15T17:13:43.487Z,22.04
2023-10-15T17:16:10.383Z,22.06
2023-10-15T17:18:37.158Z,22.12
2023-10-15T17:21:04.276Z,21.45
2023-10-15T17:23:31.028Z,21.68
2023-10-15T17:25:58.518Z,21.75
2023-10-15T17:28:26.833Z,21.49
2023-10-15T17:30:53.842Z,21.50
2023-10-15T17:33:21.014Z,21.43
2023-10-15T17:35:47.817Z,21.06
2023-10-15T17:38:34.947Z,21.17
2023-10-15T17:41:02.580Z,21.43
2023-10-15T17:43:29.416Z,21.15
2023-10-15T17:45:56.396Z,20.96
2023-10-15T17:48:23.829Z,20.81
2023-10-15T17:50:57.209Z,20.79
2023-10-15T17:53:29.375Z,21.00
2023-10-15T17:55:58.902Z,21.23
2023-10-15T17:58:26.756Z,21.09
2023-10-15T18:00:53.903Z,21.19
2023-10-15T18:03:21.981Z,20.70
2023-10-15T18:05:50.453Z,21.11
2023-10-15T18:08:17.219Z,20.82
2023-10-15T18:10:44.940Z,20.80
2023-10-15T18:13:11.933Z,20.78
2023-10-15T18:15:38.776Z,20.70
2023-10-15T18:18:05.920Z,20.64
2023-10-15T18:20:32.976Z,20.42
2023-10-15T18:23:03.636Z,20.62
2023-10-15T18:25:33.555Z,20.43
2023-10-15T18:28:00.491Z,20.73
2023-10-15T18:30:27.373Z,20.32
2023-10-15T18:32:54.247Z,20.30
2023-10-15T18:35:21.110Z,20.48
2023-10-15T18:37:48.344Z,20.66
2023-10-15T18:40:16.244Z,20.31
2023-10-15T18:42:43.454Z,20.66
2023-10-15T18:45:11.576Z,20.55
2023-10-15T18:47:38.816Z,20.50
2023-10-15T18:50:07.885Z,20.59
2023-10-15T18:52:35.464Z,20.56
2023-10-15T18:55:04.329Z,20.58
2023-10-15T18:57:31.395Z,20.36
2023-10-15T18:59:59.077Z,20.71
2023-10-15T19:02:26.828Z,20.37
2023-10-15T19:04:53.748Z,20.32
2023-10-15T19:07:20.618Z,20.20
2023-10-15T19:09:47.380Z,20.08
2023-10-15T19:12:14.242Z,19.96
2023-10-15T19:14:42.589Z,19.60
2023-10-15T19:17:10.044Z,19.59
2023-10-15T19:19:38.871Z,19.50
2023-10-15T19:22:06.143Z,19.35
2023-10-15T19:24:33.796Z,19.66
2023-10-15T19:27:00.716Z,19.71
2023-10-15T19:29:27.679Z,19.67
2023-10-15T19:31:54.614Z,18.70
2023-10-15T19:34:21.701Z,19.23
2023-10-15T19:36:48.428Z,19.42
2023-10-15T19:39:17.058Z,19.51
2023-10-15T19:41:43.991Z,19.79
2023-10-15T19:44:11.312Z,19.73
2023-10-15T19:46:38.423Z,19.99
2023-10-15T19:49:05.365Z,19.85
2023-10-15T19:51:32.628Z,19.95
2023-10-15T19:53:59.442Z,19.65
2023-10-15T19:56:26.307Z,19.36
2023-10-15T19:58:53.055Z,19.57
2023-10-15T20:01:19.979Z,19.22
2023-10-15T20:04:03.004Z,19.40
2023-10-15T20:06:33.663Z,19.30
2023-10-15T20:09:01.241Z,19.41
2023-10-15T20:11:28.099Z,19.31
2023-10-15T20:13:55.029Z,19.18
2023-10-15T20:16:23.761Z,19.54
2023-10-15T20:18:51.256Z,19.40
2023-10-15T20:21:18.356Z,19.38
2023-10-15T20:23:45.293Z,19.41
2023-10-15T20:26:12.093Z,19.39
2023-10-15T20:28:38.900Z,19.27
2023-10-15T20:31:05.768Z,18.83
2023-10-15T20:33:33.333Z,18.68
2023-10-15T20:36:00.110Z,18.58
2023-10-15T20:38:28.202Z,18.53
2023-10-15T20:40:56.135Z,18.65
2023-10-15T20:43:23.010Z,18.47
2023-10-15T20:45:50.087Z,18.25
2023-10-15T20:48:17.005Z,18.25
2023-10-15T20:50:43.987Z,18.17
2023-10-15T20:53:10.866Z,18.46
2023-10-15T20:55:37.944Z,18.16
2023-10-15T20:58:04.856Z,18.25
2023-10-15T21:00:31.727Z,17.98
2023-10-15T21:03:00.888Z,18.12
2023-10-15T21:05:31.026Z,18.67
2023-10-15T21:07:58.009Z,18.53
2023-10-15T21:10:25.366Z,18.52
2023-10-15T21:12:52.474Z,18.67
2023-10-15T21:15:19.504Z,18.30
2023-10-15T21:17:46.333Z,18.20
2023-10-15T21:20:13.513Z,18.30
2023-10-15T21:22:41.592Z,18.39
2023-10-15T21:25:16.795Z,18.19
2023-10-15T21:27:44.281Z,18.52
2023-10-15T21:30:12.732Z,18.20
2023-10-15T21:32:41.161Z,18.18
2023-10-15T21:35:09.309Z,18.02
2023-10-15T21:37:40.713Z,18.56
2023-10-15T21:40:16.181Z,18.29
2023-10-15T21:42:47.938Z,18.30
2023-10-15T21:45:14.942Z,18.08
2023-10-15T21:47:43.468Z,18.25
2023-10-15T21:50:13.528Z,18.04
2023-10-15T21:52:40.368Z,18.33
2023-10-15T21:55:08.485Z,18.24
2023-10-15T21:57:35.413Z,18.30
2023-10-15T22:00:02.402Z,18.30
2023-10-15T22:02:30.119Z,18.31
2023-10-15T22:04:57.038Z,17.89
2023-10-15T22:07:23.945Z,17.98
2023-10-15T22:09:50.769Z,18.53
2023-10-15T22:12:20.155Z,18.06
2023-10-15T22:14:47.162Z,17.98
2023-10-15T22:17:15.894Z,17.90
2023-10-15T22:19:44.440Z,17.92
2023-10-15T22:22:12.309Z,17.73
2023-10-15T22:24:42.621Z,17.42
2023-10-15T22:27:15.322Z,17.40
2023-10-15T22:29:45.337Z,17.10
2023-10-15T22:32:12.990Z,16.97
2023-10-15T22:34:39.980Z,17.25
2023-10-15T22:37:09.742Z,17.25
2023-10-15T22:39:39.857Z,17.28
2023-10-15T22:42:12.804Z,17.26
2023-10-15T22:44:46.273Z,17.13
2023-10-15T22:47:14.241Z,17.36
2023-10-15T22:49:41.876Z,17.27
2023-10-15T22:52:09.313Z,16.79
2023-10-15T22:54:36.265Z,16.59
2023-10-15T22:57:04.730Z,16.81
2023-10-15T22:59:32.168Z,16.95
2023-10-15T23:01:59.109Z,16.70
2023-10-15T23:04:26.359Z,16.73
2023-10-15T23:06:54.823Z,16.58
2023-10-15T23:09:22.424Z,17.74
2023-10-15T23:11:50.105Z,18.17
2023-10-15T23:14:17.303Z,18.12
2023-10-15T23:16:46.683Z,17.78
2023-10-15T23:19:17.006Z,17.66
2023-10-15T23:21:50.260Z,17.03
2023-10-15T23:24:17.909Z,17.25
2023-10-15T23:26:44.991Z,17.72
2023-10-15T23:29:12.002Z,17.49
2023-10-15T23:31:41.553Z,17.21
2023-10-15T23:34:12.245Z,17.18
2023-10-15T23:36:39.170Z,17.16
2023-10-15T23:39:09.169Z,17.31
2023-10-15T23:41:37.162Z,17.12
2023-10-15T23:44:04.277Z,17.39
2023-10-15T23:46:32.547Z,16.86
2023-10-15T23:49:00.830Z,16.86
2023-10-15T23:51:30.091Z,16.89
2023-10-15T23:53:56.923Z,16.77
2023-10-15T23:56:33.225Z,16.65
2023-10-15T23:59:03.502Z,16.58
